Latest Coastal Weather Observations for Port Augusta

IDS60701

Issued at 10:31 pm CDT Wednesday 18 January 2017 (issued every 10 minutes, with the page automatically refreshed every 10 minutes)

About coastal observations | Map of coastal stations | Coastal observations for SA | Marine services | Other Formats
Station Details ID: 018201 Name: PORT AUGUSTA AERO Lat: -32.51 Lon: 137.72 Height: 13.97 m
Data from the previous 72 hours. | See also: Recent months at Port Augusta
Date/Time
CDT
Temp
°C
Wind Pressure Rain since
9am
mm
Weather Cloud Vis
km
Sea
Height
m
Swell
Dir  Spd
kts
Gust
kts
hPa Trend Height
m
Period
s
Dir
18/10:30pm 25.8 SSW 11 14 1009.4 - 0.0 - - 10 - - - -
18/10:00pm 26.2 SSW 10 14 1009.2 - 0.0 - - 10 - - - -
18/09:30pm 27.2 SE 5 7 1009.2 - 0.0 - - 10 - - - -
18/09:00pm 27.4 SE 6 9 1008.8 - 0.0 - - 10 - - - -
18/08:30pm 29.1 S 7 10 1008.6 - 0.0 - - 10 - - - -
18/08:00pm 30.4 S 11 14 1008.2 - 0.0 - - 10 - - - -
18/07:30pm 31.2 S 13 17 1008.1 - 0.0 - - 10 - - - -
18/07:00pm 31.1 SSE 16 22 1007.8 - 0.0 - - 10 - - - -
18/06:30pm 31.3 SSE 17 23 1007.8 - 0.0 - - 10 - - - -
18/06:00pm 31.6 SSE 19 23 1007.7 - 0.0 - Mostly clear 10 - - - -
18/05:30pm 32.4 SSE 18 25 1007.5 - 0.0 - - 10 - - - -
18/05:00pm 32.8 SSE 20 25 1007.7 - 0.0 - - 10 - - - -
18/04:30pm 33.1 SSE 17 22 1008.1 - 0.0 - - 10 - - - -
18/04:00pm 31.6 SSE 15 22 1008.4 - 0.0 - Partly cloudy 10 - - - -
18/03:30pm 31.8 SSE 18 23 1008.3 - 0.0 - Partly cloudy 10 - - - -
18/03:00pm 30.7 SSE 17 21 1008.5 - 0.0 - Partly cloudy 10 - - - -
18/02:30pm 31.3 SE 18 23 1008.7 - 0.0 - Partly cloudy 10 - - - -
18/02:00pm 32.6 SSE 17 23 1009.1 - 0.0 - Partly cloudy 10 - - - -
18/01:30pm 33.3 SE 15 20 1009.5 - 0.0 - Partly cloudy 10 - - - -
18/01:00pm 32.7 SE 12 18 1010.2 - 0.0 - - 10 - - - -
18/12:30pm 32.9 SSE 13 19 1010.4 - 0.0 - - 10 - - - -
18/12:00pm 31.4 SSE 14 19 1010.6 - 0.0 - - 10 - - - -
18/11:30am 30.2 SSE 15 20 1010.6 - 0.0 - - 10 - - - -
18/11:00am 29.7 SSE 18 22 1011.1 - 0.0 - - 10 - - - -
18/10:30am 28.5 SSE 19 23 1011.2 - 0.0 - - 10 - - - -
18/10:00am 27.4 SSE 20 26 1011.1 - 0.0 - - 10 - - - -
18/09:30am 27.0 SSE 19 24 1011.1 - 0.0 - - 10 - - - -
18/09:00am 27.1 SSE 16 20 1010.9 - 0.0 - - 10 - - - -
18/08:30am 27.0 SSE 14 19 1010.7 - 0.0 - Partly cloudy 10 - - - -
18/08:00am 25.3 SSE 14 18 1010.4 - 0.0 - Partly cloudy 10 - - - -
18/07:30am 24.2 SSE 15 20 1010.1 - 0.0 - - 10 - - - -
18/07:00am 23.1 SE 11 15 1010.3 - 0.0 - - 10 - - - -
18/06:30am 23.0 SSE 11 14 1009.7 - 0.0 - - 10 - - - -
18/06:00am 22.6 SSE 11 15 1009.3 - 0.0 - - 10 - - - -
18/05:30am 21.4 SSE 8 10 1009.1 - 0.0 - - 10 - - - -
18/05:00am 21.7 S 8 11 1008.7 - 0.0 - - 10 - - - -
18/04:30am 22.0 SSE 12 17 1008.1 - 0.0 - - 10 - - - -
18/04:00am 21.7 SSE 14 18 1008.0 - 0.0 - - 10 - - - -
18/03:30am 21.5 SE 15 19 1008.1 - 0.0 - - 10 - - - -
18/03:00am 22.5 SE 13 16 1008.3 - 0.0 - - 10 - - - -
18/02:30am 23.3 SE 11 13 1008.4 - 0.0 - - 10 - - - -
18/02:00am 24.0 SE 9 14 1008.4 - 0.0 - - 10 - - - -
18/01:30am 25.7 ESE 8 12 1007.7 - 0.0 - - 10 - - - -
18/01:00am 24.2 SSE 9 14 1007.9 - 0.0 - - 10 - - - -
18/12:30am 24.2 SE 16 22 1007.9 - 0.0 - - 10 - - - -
18/12:00am 24.8 SSE 13 22 1008.2 - 0.0 - - 10 - - - -
 
Date/Time
CDT
Temp
°C
Wind Pressure Rain since
9am
mm
Weather Cloud Vis
km
Sea
Height
m
Swell
Dir  Spd
kts
Gust
kts
hPa Trend Height
m
Period
s
Dir
17/11:30pm 25.3 SSE 16 24 1008.6 - 0.0 - - 10 - - - -
17/11:13pm 26.5 S 18 28 1008.9 - 0.0 - - 10 - - - -
17/11:00pm 26.2 S 21 28 1008.6 - 0.0 - - 10 - - - -
17/10:34pm 28.9 SSE 25 35 1007.9 - 0.0 - - 10 - - - -
17/10:30pm 29.6 SSE 25 33 1007.8 - 0.0 - - 10 - - - -
17/10:11pm 29.1 SSE 25 35 1008.0 - 0.0 - - 10 - - - -
17/10:00pm 29.3 S 30 38 1007.2 - 0.0 - - 10 - - - -
17/09:33pm 30.0 S 27 37 1006.6 - 0.0 - - 10 - - - -
17/09:30pm 30.2 S 27 36 1006.5 - 0.0 - - 10 - - - -
17/09:05pm 31.0 SW 9 28 1005.8 - 0.0 - - 10 - - - -
17/09:00pm 33.5 W 3 6 1005.4 - 0.0 - - 10 - - - -
17/08:30pm 35.8 NW 6 7 1005.0 - 0.0 - - 10 - - - -
17/08:00pm 38.5 NW 7 9 1004.6 - 0.0 - - 10 - - - -
17/07:30pm 40.3 NW 7 10 1004.5 - 0.0 - - 10 - - - -
17/07:00pm 41.2 NW 12 15 1004.3 - 0.0 - - 10 - - - -
17/06:30pm 42.0 WNW 11 16 1004.2 - 0.0 - - 10 - - - -
17/06:00pm 42.3 WNW 11 16 1004.2 - 0.0 - - 10 - - - -
17/05:30pm 42.7 NNW 10 14 1004.2 - 0.0 - - 10 - - - -
17/05:00pm 42.0 NW 11 17 1004.4 - 0.0 - - 10 - - - -
17/04:30pm 42.0 NNW 13 20 1004.7 - 0.0 - - 10 - - - -
17/04:00pm 42.3 NNW 14 20 1005.0 - 0.0 - - 10 - - - -
17/03:30pm 41.9 NW 18 28 1005.4 - 0.0 - - 10 - - - -
17/03:23pm 42.2 NNW 16 28 1005.4 - 0.0 - - 10 - - - -
17/03:00pm 41.8 NNW 11 16 1005.6 - 0.0 - - 10 - - - -
17/02:30pm 41.9 NW 13 18 1006.1 - 0.0 - - 10 - - - -
17/02:00pm 40.4 NNW 12 22 1006.6 - 0.0 - - 10 - - - -
17/01:30pm 40.6 NNW 14 20 1006.9 - 0.0 - - 10 - - - -
17/01:00pm 39.9 NNW 12 19 1007.3 - 0.0 - - 10 - - - -
17/12:30pm 40.2 NNW 11 16 1007.7 - 0.0 - - 10 - - - -
17/12:00pm 39.9 NW 11 16 1007.9 - 0.0 - - 10 - - - -
17/11:30am 38.8 NNW 7 12 1008.0 - 0.0 - - 10 - - - -
17/11:00am 36.3 NW 8 11 1008.3 - 0.0 - - 10 - - - -
17/10:30am 35.3 NNW 5 7 1008.4 - 0.0 - - 10 - - - -
17/10:00am 33.1 WNW 3 5 1008.6 - 0.0 - - 10 - - - -
17/09:30am 31.5 SE 1 3 1008.6 - 0.0 - - 10 - - - -
17/09:00am 29.0 CALM 0 0 1008.8 - - - - 10 - - - -
17/08:30am 26.2 CALM 0 2 1008.6 - - - - 10 - - - -
17/08:00am 23.5 CALM 0 0 1008.6 - - - - 10 - - - -
17/07:30am 20.5 SW 4 5 1008.4 - - - - 10 - - - -
17/07:00am 18.1 CALM 0 0 1008.1 - - - - 10 - - - -
17/06:30am 17.3 CALM 0 0 1007.8 - - - - 10 - - - -
17/06:00am 18.1 ENE 4 5 1007.6 - - - - 10 - - - -
17/05:30am 17.1 ESE 5 6 1007.4 - - - - 10 - - - -
17/05:00am 18.4 WSW 3 4 1007.1 - - - - 10 - - - -
17/04:30am 17.9 SW 6 7 1007.0 - - - - 10 - - - -
17/04:00am 18.9 W 3 5 1007.1 - - - - 10 - - - -
17/03:30am 19.4 W 3 5 1007.1 - - - - 10 - - - -
17/03:00am 19.2 W 5 7 1007.4 - - - - 10 - - - -
17/02:30am 19.8 W 3 5 1007.6 - - - - 10 - - - -
17/02:00am 20.2 W 2 4 1007.8 - - - - 10 - - - -
17/01:30am 21.2 WSW 3 6 1007.9 - - - - 10 - - - -
17/01:00am 21.6 - - - 1007.9 - - - - - - - - -
17/12:00am 24.5 SE 5 6 1008.3 - - - - 10 - - - -
 
Date/Time
CDT
Temp
°C
Wind Pressure Rain since
9am
mm
Weather Cloud Vis
km
Sea
Height
m
Swell
Dir  Spd
kts
Gust
kts
hPa Trend Height
m
Period
s
Dir
16/11:30pm 27.6 SE 8 9 1008.5 - - - - 10 - - - -
16/11:00pm 26.6 SE 7 10 1008.5 - - - - 10 - - - -
16/10:30pm 24.9 SW 5 6 1008.3 - - - - 10 - - - -
16/10:00pm 24.9 SW 6 7 1008.2 - - - - 10 - - - -
16/09:30pm 27.9 SE 3 4 1008.2 - - - - 10 - - - -
16/09:00pm 31.7 SE 5 6 1008.1 - - - - 10 - - - -
16/08:30pm 34.2 NNW 2 3 1008.0 - - - - 10 - - - -
16/08:00pm 35.7 NNW 3 4 1007.8 - - - - 10 - - - -
16/07:30pm 36.9 N 4 5 1007.6 - - - - 10 - - - -
16/07:00pm 37.2 NE 5 6 1007.5 - - - - 10 - - - -
16/06:30pm 37.7 NW 3 9 1007.6 - - - - 10 - - - -
16/06:00pm 37.7 NNW 6 11 1007.6 - - - - 10 - - - -
16/05:30pm 38.3 NE 5 7 1007.9 - - - - 10 - - - -
16/05:00pm 37.5 - - - 1008.1 - - - - - - - - -
16/03:30pm 36.8 W 7 11 1008.9 - - - - - - - - -
16/02:30pm 36.6 WNW 8 11 1009.8 - - - - - - - - -
16/01:30pm 35.1 NW 8 14 1010.6 - 0.0 - - - - - - -
16/01:00pm 34.2 NNW 8 13 1011.0 - 0.0 - - - - - - -
16/12:30pm 34.1 NW 9 13 1011.1 - 0.0 - - - - - - -
16/12:00pm 33.2 NNW 8 13 1011.5 - 0.0 - - - - - - -
16/11:30am 32.6 NNW 7 12 1011.9 - 0.0 - - - - - - -
16/11:00am 31.3 NW 6 10 1012.2 - 0.0 - - - - - - -
16/10:30am 30.2 NW 6 9 1012.5 - 0.0 - - - - - - -
16/10:00am 29.2 NNW 6 8 1012.6 - 0.0 - - - - - - -
16/09:30am 28.0 W 3 5 1012.9 - 0.0 - - - - - - -
16/09:00am 26.6 WSW 3 5 1013.1 - 0.0 - - - - - - -
16/08:30am 25.2 WSW 5 7 1013.1 - 0.0 - - - - - - -
16/08:00am 22.7 SW 4 5 1012.9 - 0.0 - - - - - - -
16/07:30am 20.2 WSW 4 5 1012.7 - 0.0 - - - - - - -
16/07:00am 17.4 WSW 4 5 1012.6 - 0.0 - - - - - - -
16/06:30am 17.2 CALM 0 0 1012.4 - 0.0 - - - - - - -
16/06:00am 19.0 ESE 5 7 1012.2 - 0.0 - - - - - - -
16/05:30am 19.1 ESE 8 11 1012.0 - 0.0 - - - - - - -
16/05:00am 19.2 ESE 7 9 1011.9 - 0.0 - - - - - - -
16/04:30am 20.0 SE 9 11 1011.8 - 0.0 - - - - - - -
16/04:00am 20.7 ESE 9 12 1011.9 - 0.0 - - - - - - -
16/03:30am 20.5 SE 7 10 1012.0 - 0.0 - - - - - - -
16/03:00am 20.1 SE 7 9 1012.2 - 0.0 - - - - - - -
16/02:30am 20.2 ESE 6 7 1012.3 - 0.0 - - - - - - -
16/02:00am 20.8 SE 5 7 1012.6 - 0.0 - - - - - - -
16/01:30am 20.7 SE 4 7 1012.9 - 0.0 - - - - - - -
16/01:00am 21.0 SE 4 5 1013.1 - 0.0 - - - - - - -
16/12:30am 21.4 S 2 5 1013.1 - 0.0 - - - - - - -
16/12:00am 21.7 SSE 8 11 1013.2 - 0.0 - - - - - - -
 
Date/Time
CDT
Temp
°C
Wind Pressure Rain since
9am
mm
Weather Cloud Vis
km
Sea
Height
m
Swell
Dir  Spd
kts
Gust
kts
hPa Trend Height
m
Period
s
Dir
15/11:30pm 21.8 SE 12 16 1013.1 - 0.0 - - - - - - -
15/11:00pm 21.9 SE 14 19 1013.2 - 0.0 - - - - - - -

Other Formats:

Comma delimited format used in spreadsheet applications
http://www.bom.gov.au/fwo/IDS60701/IDS60701.95666.axf

JavaScript Object Notation format (JSON) in row-major order
http://www.bom.gov.au/fwo/IDS60701/IDS60701.95666.json